Time;durP1;ratioP1;P1;durP2;ratioP2;P2;SDS_P1;SDS_P2;PMS_P1;PMS_P2;Temp;Humidity;BMP_temperature;BMP_pressure;BME280_temperature;BME280_humidity;BME280_pressure;Samples;Min_cycle;Max_cycle;Signal;HPM_P1;HPM_P2
2022/02/12 00:01:14;;;;;;;5.17;3.90;;;0.90;99.90;;;;;;5011764;28;20563;-71
2022/02/12 00:03:42;;;;;;;6.13;4.00;;;0.90;99.90;;;;;;5011121;28;20508;-71
2022/02/12 00:06:10;;;;;;;5.80;3.73;;;0.90;99.90;;;;;;5017302;28;20466;-71
2022/02/12 00:08:41;;;;;;;6.03;3.63;;;0.90;99.90;;;;;;5016817;28;20617;-70
2022/02/12 00:11:10;;;;;;;8.07;4.17;;;0.90;99.90;;;;;;5014186;28;20470;-71
2022/02/12 00:13:38;;;;;;;4.60;3.33;;;0.90;99.90;;;;;;5027617;28;20788;-70
2022/02/12 00:16:11;;;;;;;4.70;3.50;;;0.90;99.90;;;;;;5012885;28;20472;-71
2022/02/12 00:18:38;;;;;;;6.53;3.80;;;0.90;99.90;;;;;;5009344;28;20490;-71
2022/02/12 00:21:09;;;;;;;3.63;3.33;;;0.90;99.90;;;;;;5012265;28;20568;-71
2022/02/12 00:23:40;;;;;;;4.90;3.47;;;0.90;99.90;;;;;;5009487;28;20535;-71
2022/02/12 00:26:10;;;;;;;5.87;3.70;;;1.00;99.90;;;;;;5012612;28;20466;-71
2022/02/12 00:28:38;;;;;;;7.27;3.63;;;1.00;99.90;;;;;;5010477;28;20478;-73
2022/02/12 00:31:06;;;;;;;9.30;4.30;;;1.00;99.90;;;;;;5009990;28;20497;-70
2022/02/12 00:33:39;;;;;;;7.90;4.13;;;1.00;99.90;;;;;;5009638;28;20484;-71
2022/02/12 00:36:06;;;;;;;8.10;3.87;;;1.00;99.90;;;;;;5011553;28;20470;-70
2022/02/12 00:38:34;;;;;;;11.13;3.90;;;1.00;99.90;;;;;;5010899;28;20559;-71
2022/02/12 00:41:04;;;;;;;4.80;3.60;;;1.00;99.90;;;;;;5013134;28;20829;-71
2022/02/12 00:43:37;;;;;;;6.33;3.80;;;1.00;99.90;;;;;;5011178;28;20490;-73
2022/02/12 00:46:05;;;;;;;5.93;3.60;;;1.00;99.90;;;;;;5014844;28;20468;-71
2022/02/12 00:48:37;;;;;;;8.87;3.67;;;1.00;99.90;;;;;;5012730;28;20569;-70
2022/02/12 00:51:06;;;;;;;8.57;4.20;;;1.00;99.90;;;;;;5013141;28;20462;-70
2022/02/12 00:53:34;;;;;;;10.37;4.20;;;1.00;99.90;;;;;;5013583;28;20509;-70
2022/02/12 00:56:13;;;;;;;7.10;3.53;;;1.00;99.90;;;;;;5014443;28;20472;-72
2022/02/12 00:58:41;;;;;;;9.20;3.77;;;1.00;99.90;;;;;;5019125;28;20491;-73
2022/02/12 01:01:11;;;;;;;11.30;4.20;;;1.10;99.90;;;;;;5013706;28;20467;-71
2022/02/12 01:03:40;;;;;;;6.73;3.20;;;1.10;99.90;;;;;;5014787;28;20492;-72
2022/02/12 01:06:11;;;;;;;5.23;3.30;;;1.10;99.90;;;;;;5010742;28;20562;-72
2022/02/12 01:08:39;;;;;;;9.90;4.20;;;1.10;99.90;;;;;;5014696;28;20479;-73
2022/02/12 01:11:07;;;;;;;10.27;4.00;;;1.10;99.90;;;;;;5013159;28;20489;-72
2022/02/12 01:13:35;;;;;;;9.27;4.07;;;1.10;99.90;;;;;;5021107;28;20486;-70
2022/02/12 01:16:04;;;;;;;8.07;4.80;;;1.10;99.90;;;;;;5012070;28;20491;-71
2022/02/12 01:18:32;;;;;;;7.33;3.73;;;1.20;99.90;;;;;;5027360;28;20560;-71
2022/02/12 01:21:01;;;;;;;10.03;4.20;;;1.20;99.90;;;;;;5014468;28;20481;-72
2022/02/12 01:23:29;;;;;;;4.90;3.20;;;1.20;99.90;;;;;;5013631;28;20497;-71
2022/02/12 01:25:57;;;;;;;6.43;3.70;;;1.20;99.90;;;;;;5016284;28;21130;-70
2022/02/12 01:28:26;;;;;;;6.07;3.27;;;1.20;99.90;;;;;;5023220;28;20487;-72
2022/02/12 01:30:54;;;;;;;6.67;4.07;;;1.20;99.90;;;;;;5011187;28;20471;-71
2022/02/12 01:33:22;;;;;;;6.10;4.20;;;1.20;99.90;;;;;;5013173;28;20487;-70
2022/02/12 01:35:53;;;;;;;11.57;4.00;;;1.20;99.90;;;;;;5010587;28;20458;-71
2022/02/12 01:38:22;;;;;;;7.33;4.33;;;1.20;99.90;;;;;;5014070;28;20495;-70
2022/02/12 01:40:50;;;;;;;7.33;3.83;;;1.20;99.90;;;;;;5011361;28;20526;-71
2022/02/12 01:43:21;;;;;;;8.40;3.77;;;1.20;99.90;;;;;;5013453;28;20512;-70
2022/02/12 01:45:52;;;;;;;8.27;3.93;;;1.20;99.90;;;;;;5017689;28;20462;-71
2022/02/12 01:48:20;;;;;;;6.60;4.00;;;1.30;99.90;;;;;;5015440;28;20480;-72
2022/02/12 01:50:51;;;;;;;8.47;4.57;;;1.20;99.90;;;;;;5018033;28;20456;-70
2022/02/12 01:53:25;;;;;;;6.53;3.90;;;1.20;99.90;;;;;;5016311;28;20488;-71
2022/02/12 01:55:55;;;;;;;6.87;3.97;;;1.20;99.90;;;;;;5015374;28;20461;-71
2022/02/12 01:58:23;;;;;;;6.67;3.97;;;1.20;99.90;;;;;;5023257;28;20471;-71
2022/02/12 02:00:52;;;;;;;5.33;3.80;;;1.20;99.90;;;;;;5012050;28;20461;-72
2022/02/12 02:03:25;;;;;;;7.63;4.20;;;1.20;99.90;;;;;;5016274;28;20491;-71
2022/02/12 02:05:55;;;;;;;11.50;4.10;;;1.10;99.90;;;;;;5015111;28;20452;-71
2022/02/12 02:08:25;;;;;;;6.90;3.83;;;1.10;99.90;;;;;;5012555;28;20477;-72
2022/02/12 02:10:53;;;;;;;5.67;3.83;;;1.00;99.90;;;;;;5014368;28;20468;-70
2022/02/12 02:13:25;;;;;;;7.17;3.80;;;1.00;99.90;;;;;;5015602;28;20473;-70
2022/02/12 02:15:56;;;;;;;6.07;4.13;;;1.00;99.90;;;;;;5009662;28;20452;-71
2022/02/12 02:18:25;;;;;;;5.90;3.80;;;0.90;99.90;;;;;;5016125;28;20550;-72
2022/02/12 02:20:53;;;;;;;6.23;4.03;;;0.90;99.90;;;;;;5017150;28;20467;-71
2022/02/12 02:23:23;;;;;;;8.17;4.00;;;0.90;99.90;;;;;;5015930;28;20492;-71
2022/02/12 02:25:53;;;;;;;4.23;3.60;;;0.80;99.90;;;;;;5012727;28;20470;-72
2022/02/12 02:28:21;;;;;;;7.77;4.40;;;0.80;99.90;;;;;;5012867;28;20480;-71
2022/02/12 02:30:55;;;;;;;5.53;4.20;;;0.80;99.90;;;;;;5016521;28;20525;-71
2022/02/12 02:33:23;;;;;;;7.93;4.10;;;0.80;99.90;;;;;;5017784;28;20508;-72
2022/02/12 02:35:53;;;;;;;5.70;3.63;;;0.70;99.90;;;;;;5016156;28;20455;-72
2022/02/12 02:38:24;;;;;;;6.70;3.57;;;0.80;99.90;;;;;;5019487;28;20468;-71
2022/02/12 02:40:54;;;;;;;10.67;5.03;;;0.70;99.90;;;;;;5018574;28;20466;-70
2022/02/12 02:43:30;;;;;;;6.90;3.80;;;0.70;99.90;;;;;;5015836;28;20481;-70
2022/02/12 02:45:59;;;;;;;4.80;3.67;;;0.70;99.90;;;;;;5019331;28;20491;-73
2022/02/12 02:48:27;;;;;;;8.50;4.70;;;0.70;99.90;;;;;;5018268;28;20519;-72
2022/02/12 02:56:34;;;;;;;5.80;4.10;;;0.70;99.90;;;;;;5019715;28;20467;-72
2022/02/12 02:59:03;;;;;;;9.03;4.90;;;0.70;99.90;;;;;;5015561;28;20476;-72
2022/02/12 03:01:35;;;;;;;6.07;3.90;;;0.80;99.90;;;;;;5016743;28;20469;-71
2022/02/12 03:04:06;;;;;;;7.93;4.00;;;0.90;99.90;;;;;;5017012;28;20506;-71
2022/02/12 03:06:34;;;;;;;9.43;5.10;;;1.00;99.90;;;;;;5014085;28;20456;-71
2022/02/12 03:09:05;;;;;;;5.33;3.70;;;1.00;99.90;;;;;;5011335;28;20486;-70
2022/02/12 03:11:37;;;;;;;6.90;4.23;;;1.00;99.90;;;;;;5016778;28;20461;-70
2022/02/12 03:14:08;;;;;;;5.70;4.30;;;1.10;99.90;;;;;;5016302;28;20487;-72
2022/02/12 03:16:36;;;;;;;8.90;4.40;;;1.10;99.90;;;;;;5012532;28;20481;-72
2022/02/12 03:19:04;;;;;;;9.00;3.90;;;1.00;99.90;;;;;;5015192;28;20505;-70
2022/02/12 03:21:32;;;;;;;8.77;3.93;;;1.00;99.90;;;;;;5013011;28;20539;-71
2022/02/12 03:24:00;;;;;;;10.10;3.97;;;1.00;99.90;;;;;;5014811;28;20494;-72
2022/02/12 03:26:29;;;;;;;6.10;4.40;;;1.00;99.90;;;;;;5015020;28;20465;-72
2022/02/12 03:28:57;;;;;;;6.23;3.83;;;1.10;99.90;;;;;;5011490;28;20497;-70
2022/02/12 03:31:25;;;;;;;6.30;4.27;;;1.10;99.90;;;;;;5012326;28;20471;-72
2022/02/12 03:33:53;;;;;;;4.90;3.90;;;1.20;99.90;;;;;;5013112;28;20484;-71
2022/02/12 03:36:21;;;;;;;5.70;4.00;;;1.20;99.90;;;;;;5014135;28;21095;-71
2022/02/12 03:38:49;;;;;;;8.50;4.00;;;1.30;99.90;;;;;;5016900;28;20516;-71
2022/02/12 03:41:17;;;;;;;5.70;4.37;;;1.30;99.90;;;;;;5011850;28;20569;-71
2022/02/12 03:43:48;;;;;;;5.67;3.50;;;1.30;99.90;;;;;;5012743;28;20487;-71
2022/02/12 03:46:16;;;;;;;9.07;4.60;;;1.20;99.90;;;;;;5012233;28;20504;-70
2022/02/12 03:48:44;;;;;;;6.30;3.70;;;1.20;99.90;;;;;;5014366;28;20557;-72
2022/02/12 03:51:12;;;;;;;6.90;3.80;;;1.20;99.90;;;;;;5012134;28;20515;-71
2022/02/12 03:53:40;;;;;;;5.10;3.77;;;1.20;99.90;;;;;;5013547;28;20564;-71
2022/02/12 03:56:11;;;;;;;4.27;3.87;;;1.10;99.90;;;;;;5011142;28;20460;-70
2022/02/12 03:58:39;;;;;;;6.60;4.20;;;1.10;99.90;;;;;;5020916;28;20553;-71
2022/02/12 04:01:08;;;;;;;10.80;4.20;;;1.10;99.90;;;;;;5013111;28;20468;-71
2022/02/12 04:03:38;;;;;;;5.40;3.63;;;1.10;99.90;;;;;;5014923;28;20512;-72
2022/02/12 04:06:06;;;;;;;7.33;4.23;;;1.20;99.90;;;;;;5011681;28;20461;-71
2022/02/12 04:08:36;;;;;;;7.20;4.50;;;1.20;99.90;;;;;;5013717;28;20535;-71
2022/02/12 04:11:04;;;;;;;11.83;4.57;;;1.20;99.90;;;;;;5013048;28;20457;-72
2022/02/12 04:13:34;;;;;;;8.40;4.50;;;1.30;99.90;;;;;;5013845;28;20472;-71
2022/02/12 04:16:02;;;;;;;14.50;4.70;;;1.30;99.90;;;;;;5010882;28;20557;-72
2022/02/12 04:18:31;;;;;;;8.87;4.23;;;1.30;99.90;;;;;;5013949;28;20484;-71
2022/02/12 04:20:59;;;;;;;9.07;4.50;;;1.30;99.90;;;;;;5008215;28;20461;-72
2022/02/12 04:23:27;;;;;;;7.30;4.50;;;1.30;99.90;;;;;;5011414;28;20717;-71
2022/02/12 04:25:57;;;;;;;13.50;5.37;;;1.30;99.90;;;;;;5011517;28;20478;-71
2022/02/12 04:28:27;;;;;;;7.63;4.70;;;1.30;99.90;;;;;;5009672;28;20476;-71
2022/02/12 04:31:04;;;;;;;8.30;4.53;;;1.30;99.90;;;;;;5013220;28;20494;-71
2022/02/12 04:33:39;;;;;;;8.53;5.57;;;1.40;99.90;;;;;;5016440;28;20483;-70
2022/02/12 04:36:07;;;;;;;9.10;5.27;;;1.40;99.90;;;;;;5011630;28;20467;-70
2022/02/12 04:38:35;;;;;;;11.83;5.27;;;1.40;99.90;;;;;;5015179;28;20494;-71
2022/02/12 04:41:06;;;;;;;7.90;5.17;;;1.30;99.90;;;;;;5014076;28;20496;-70
2022/02/12 04:43:55;;;;;;;8.23;4.90;;;1.30;99.90;;;;;;5011398;28;20479;-71
2022/02/12 04:46:25;;;;;;;9.33;5.50;;;1.40;99.90;;;;;;5012894;28;20456;-71
2022/02/12 04:48:54;;;;;;;7.30;5.27;;;1.40;99.90;;;;;;5012077;28;20527;-71
2022/02/12 04:51:26;;;;;;;10.23;5.90;;;1.40;99.90;;;;;;5015267;28;20505;-71
2022/02/12 04:53:54;;;;;;;7.87;5.07;;;1.40;99.90;;;;;;5009203;28;20488;-71
2022/02/12 04:56:22;;;;;;;9.07;4.90;;;1.40;99.90;;;;;;5007642;28;21033;-71
2022/02/12 04:58:52;;;;;;;9.37;5.70;;;1.40;99.90;;;;;;5014292;28;20730;-71
2022/02/12 05:01:24;;;;;;;9.00;5.60;;;1.40;99.90;;;;;;5010478;28;20487;-71
2022/02/12 05:03:57;;;;;;;8.27;6.03;;;1.40;99.90;;;;;;5013519;28;20473;-70
2022/02/12 05:06:25;;;;;;;9.67;5.30;;;1.40;99.90;;;;;;5010149;28;20459;-70
2022/02/12 05:08:56;;;;;;;12.53;7.30;;;1.40;99.90;;;;;;5022102;28;20533;-70
2022/02/12 05:11:24;;;;;;;6.93;5.40;;;1.40;99.90;;;;;;5009560;28;20534;-71
2022/02/12 05:13:53;;;;;;;9.23;5.50;;;1.40;99.90;;;;;;5011635;28;20526;-71
2022/02/12 05:16:24;;;;;;;7.13;6.20;;;1.40;99.90;;;;;;5012323;28;20490;-71
2022/02/12 05:18:52;;;;;;;12.93;6.57;;;1.40;99.90;;;;;;5012256;28;20492;-71
2022/02/12 05:21:21;;;;;;;9.57;5.83;;;1.40;99.90;;;;;;5013240;28;20512;-71
2022/02/12 05:23:51;;;;;;;8.10;6.07;;;1.40;99.90;;;;;;5011095;28;20675;-73
2022/02/12 05:26:19;;;;;;;7.90;5.93;;;1.40;99.90;;;;;;5020150;28;20466;-70
2022/02/12 05:28:47;;;;;;;9.73;6.10;;;1.40;99.90;;;;;;5012138;28;20486;-72
2022/02/12 05:31:15;;;;;;;11.83;7.23;;;1.40;99.90;;;;;;5012510;28;20787;-71
2022/02/12 05:33:48;;;;;;;11.30;7.47;;;1.40;99.90;;;;;;5015762;28;20556;-72
2022/02/12 05:36:19;;;;;;;10.93;6.70;;;1.30;99.90;;;;;;5015039;28;20559;-71
2022/02/12 05:38:49;;;;;;;11.90;6.60;;;1.30;99.90;;;;;;5012904;28;20495;-71
2022/02/12 05:41:17;;;;;;;9.63;6.43;;;1.30;99.90;;;;;;5012695;28;20521;-72
2022/02/12 05:43:46;;;;;;;8.57;6.90;;;1.30;99.90;;;;;;5020230;28;20487;-70
2022/02/12 05:46:15;;;;;;;9.53;7.20;;;1.30;99.90;;;;;;5016122;28;20464;-71
2022/02/12 05:48:48;;;;;;;14.97;7.10;;;1.20;99.90;;;;;;5013183;28;20483;-71
2022/02/12 05:51:18;;;;;;;14.07;7.77;;;1.20;99.90;;;;;;5017302;28;20510;-71
2022/02/12 05:53:50;;;;;;;9.20;6.97;;;1.20;99.90;;;;;;5016820;28;20484;-71
2022/02/12 05:56:21;;;;;;;9.53;6.70;;;1.20;99.90;;;;;;5017084;28;20518;-71
2022/02/12 05:59:00;;;;;;;8.73;7.83;;;1.20;99.90;;;;;;5027212;28;20473;-71
2022/02/12 06:01:29;;;;;;;12.20;7.37;;;1.20;99.90;;;;;;5011714;28;20449;-72
2022/02/12 06:03:57;;;;;;;12.93;6.93;;;1.20;99.90;;;;;;5016002;28;20494;-72
2022/02/12 06:06:28;;;;;;;15.30;8.23;;;1.20;99.90;;;;;;5014401;28;20465;-71
2022/02/12 06:09:00;;;;;;;7.80;6.47;;;1.20;99.90;;;;;;5015348;28;20484;-70
2022/02/12 06:11:28;;;;;;;8.13;6.60;;;1.20;99.90;;;;;;5032400;28;20478;-72
2022/02/12 06:13:59;;;;;;;10.70;7.03;;;1.20;99.90;;;;;;5014534;28;20488;-70
2022/02/12 06:16:27;;;;;;;9.83;6.93;;;1.10;99.90;;;;;;5017115;28;20510;-71
2022/02/12 06:18:55;;;;;;;8.93;7.10;;;1.10;99.90;;;;;;5015737;28;20550;-72
2022/02/12 06:21:25;;;;;;;11.67;6.70;;;1.10;99.90;;;;;;5013235;28;20475;-71
2022/02/12 06:23:53;;;;;;;8.73;6.80;;;1.00;99.90;;;;;;5019326;28;20523;-72
2022/02/12 06:26:25;;;;;;;11.13;6.80;;;1.00;99.90;;;;;;5017287;28;20772;-71
2022/02/12 06:28:56;;;;;;;8.90;6.00;;;1.00;99.90;;;;;;5015263;28;20784;-72
2022/02/12 06:31:26;;;;;;;12.20;7.43;;;1.00;99.90;;;;;;5016757;28;20477;-71
2022/02/12 06:33:59;;;;;;;10.33;6.90;;;1.00;99.90;;;;;;5013926;28;21010;-70
2022/02/12 06:36:30;;;;;;;9.07;6.03;;;1.00;99.90;;;;;;5017756;28;20461;-70
2022/02/12 06:39:03;;;;;;;8.80;6.60;;;1.00;99.90;;;;;;5026540;28;20475;-70
2022/02/12 06:41:35;;;;;;;9.30;6.53;;;1.00;99.90;;;;;;5011248;28;20469;-71
2022/02/12 06:44:09;;;;;;;8.20;6.30;;;1.00;99.90;;;;;;5015601;28;20480;-71
2022/02/12 06:46:37;;;;;;;7.33;5.70;;;1.00;99.90;;;;;;5019661;28;20459;-71
2022/02/12 06:49:04;;;;;;;8.10;5.77;;;1.00;99.90;;;;;;5015225;28;20489;-71
2022/02/12 06:51:38;;;;;;;10.80;6.30;;;0.90;99.90;;;;;;5021626;28;20483;-71
2022/02/12 06:54:08;;;;;;;9.23;5.50;;;0.90;99.90;;;;;;5030991;28;20488;-70
2022/02/12 06:56:37;;;;;;;13.00;6.53;;;0.90;99.90;;;;;;5018947;28;20520;-69
2022/02/12 06:59:07;;;;;;;8.00;5.40;;;0.90;99.90;;;;;;5016200;28;20498;-70
2022/02/12 07:01:41;;;;;;;12.07;6.17;;;0.90;99.90;;;;;;5015304;28;20466;-70
2022/02/12 07:04:11;;;;;;;6.47;4.63;;;1.00;99.90;;;;;;5017317;28;21026;-70
2022/02/12 07:06:40;;;;;;;7.40;4.57;;;1.00;99.90;;;;;;5010014;28;20522;-70
2022/02/12 07:09:11;;;;;;;8.27;5.03;;;1.00;99.90;;;;;;4998652;28;20492;-70
2022/02/12 07:11:42;;;;;;;6.80;5.30;;;1.00;99.90;;;;;;5003148;28;20480;-70
2022/02/12 07:14:10;;;;;;;8.27;4.87;;;1.00;99.90;;;;;;5002184;28;20489;-71
2022/02/12 07:16:38;;;;;;;7.57;4.40;;;1.10;99.90;;;;;;5006347;28;20476;-72
2022/02/12 07:19:06;;;;;;;9.43;4.47;;;1.10;99.90;;;;;;5006956;28;20481;-71
2022/02/12 07:21:34;;;;;;;7.37;6.10;;;1.10;99.90;;;;;;5004472;28;20747;-71
2022/02/12 07:24:03;;;;;;;6.60;4.50;;;1.10;99.90;;;;;;5001904;28;20650;-71
2022/02/12 07:26:31;;;;;;;6.07;4.03;;;1.20;99.90;;;;;;5007723;28;20954;-71
2022/02/12 07:29:00;;;;;;;6.60;4.37;;;1.20;99.90;;;;;;5001622;28;20488;-71
2022/02/12 07:31:32;;;;;;;8.07;3.67;;;1.20;99.90;;;;;;5007582;28;20518;-70
2022/02/12 07:34:00;;;;;;;6.00;4.20;;;1.30;99.90;;;;;;5004639;28;20493;-71
2022/02/12 07:36:28;;;;;;;6.03;3.80;;;1.30;99.90;;;;;;5013138;28;20475;-72
2022/02/12 07:38:56;;;;;;;7.03;4.07;;;1.30;99.90;;;;;;5019150;28;20488;-70
2022/02/12 07:41:26;;;;;;;7.33;4.23;;;1.40;99.90;;;;;;5018654;28;20474;-70
2022/02/12 07:43:54;;;;;;;13.80;4.70;;;1.40;99.90;;;;;;5017559;28;20491;-71
2022/02/12 07:46:23;;;;;;;8.80;4.47;;;1.40;99.90;;;;;;5012406;28;20456;-73
2022/02/12 07:48:51;;;;;;;8.63;4.20;;;1.40;99.90;;;;;;5007366;28;20481;-71
2022/02/12 07:51:19;;;;;;;10.93;4.10;;;1.50;99.90;;;;;;5010578;28;20531;-70
2022/02/12 07:53:47;;;;;;;5.17;3.87;;;1.50;99.90;;;;;;5003202;28;20493;-70
2022/02/12 07:56:15;;;;;;;5.57;3.67;;;1.60;99.90;;;;;;5003260;28;20469;-71
2022/02/12 07:58:43;;;;;;;7.63;3.70;;;1.60;99.90;;;;;;4999616;28;20492;-71
2022/02/12 08:01:15;;;;;;;7.33;3.93;;;1.70;99.90;;;;;;5007483;28;20967;-72
2022/02/12 08:03:47;;;;;;;3.97;2.87;;;1.70;99.90;;;;;;5012104;28;20534;-71
2022/02/12 08:09:04;;;;;;;9.63;3.07;;;1.80;99.90;;;;;;4997184;28;20557;-72
2022/02/12 08:11:42;;;;;;;6.83;3.70;;;1.80;99.90;;;;;;5016800;28;20483;-71
2022/02/12 08:14:10;;;;;;;5.70;3.07;;;1.90;99.90;;;;;;5016963;28;20476;-73
2022/02/12 08:16:38;;;;;;;3.20;2.60;;;1.90;99.90;;;;;;5006698;28;20459;-72
2022/02/12 08:19:07;;;;;;;6.13;2.77;;;2.00;99.90;;;;;;5009217;28;20615;-72
2022/02/12 08:21:38;;;;;;;10.23;2.73;;;2.00;99.90;;;;;;5014820;28;20467;-71
2022/02/12 08:24:09;;;;;;;5.17;2.43;;;2.10;99.90;;;;;;5013782;28;20480;-72
2022/02/12 08:26:37;;;;;;;7.40;3.20;;;2.10;99.90;;;;;;5013453;28;20495;-72
2022/02/12 08:29:10;;;;;;;7.43;3.03;;;2.10;99.90;;;;;;5011569;28;20553;-72
2022/02/12 08:31:38;;;;;;;9.13;2.47;;;2.20;99.90;;;;;;5008517;28;20579;-72
2022/02/12 08:34:07;;;;;;;7.40;3.57;;;2.20;99.90;;;;;;5008998;28;20492;-72
2022/02/12 08:36:35;;;;;;;7.13;3.20;;;2.30;99.90;;;;;;5012637;28;20470;-71
2022/02/12 08:39:03;;;;;;;6.43;2.87;;;2.30;99.90;;;;;;5011468;28;20557;-72
2022/02/12 08:41:31;;;;;;;7.50;2.87;;;2.40;99.90;;;;;;5010859;28;20470;-73
2022/02/12 08:44:02;;;;;;;7.53;2.83;;;2.50;99.90;;;;;;5008021;28;20486;-71
2022/02/12 08:46:30;;;;;;;5.83;3.03;;;2.60;99.90;;;;;;5011435;28;20468;-72
2022/02/12 08:48:59;;;;;;;11.60;2.93;;;2.60;99.90;;;;;;5021618;28;20516;-71
2022/02/12 08:51:29;;;;;;;5.17;3.47;;;2.70;99.90;;;;;;5008212;28;20472;-73
2022/02/12 08:53:57;;;;;;;8.27;3.37;;;2.70;99.90;;;;;;5011638;28;20518;-71
2022/02/12 08:56:26;;;;;;;6.20;3.00;;;2.80;99.90;;;;;;5010292;28;20495;-72
2022/02/12 08:58:54;;;;;;;6.33;2.80;;;2.80;99.90;;;;;;5011596;28;20575;-72
2022/02/12 09:01:22;;;;;;;6.17;3.20;;;2.90;99.90;;;;;;5007240;28;20478;-71
2022/02/12 09:03:50;;;;;;;7.37;3.67;;;2.90;99.90;;;;;;5010010;28;20487;-72
2022/02/12 09:06:18;;;;;;;5.87;3.60;;;3.00;99.90;;;;;;5014378;28;20500;-71
2022/02/12 09:08:51;;;;;;;11.73;2.90;;;3.00;99.90;;;;;;5016162;28;20496;-72
2022/02/12 09:11:20;;;;;;;4.77;3.27;;;3.10;99.90;;;;;;5013329;28;20468;-72
2022/02/12 09:13:49;;;;;;;7.53;3.53;;;3.10;99.90;;;;;;5011322;28;20579;-72
2022/02/12 09:16:18;;;;;;;8.40;3.50;;;3.20;99.90;;;;;;5010841;28;20472;-72
2022/02/12 09:18:46;;;;;;;5.60;3.00;;;3.20;99.90;;;;;;5018146;28;20799;-72
2022/02/12 09:21:14;;;;;;;10.67;3.67;;;3.30;99.90;;;;;;5011317;28;20475;-72
2022/02/12 09:23:42;;;;;;;6.03;3.90;;;3.30;99.90;;;;;;5020649;28;20575;-73
2022/02/12 09:26:11;;;;;;;10.83;3.70;;;3.40;99.90;;;;;;5008788;28;20586;-73
2022/02/12 09:28:39;;;;;;;6.83;4.17;;;3.40;99.90;;;;;;5003855;28;20495;-73
2022/02/12 09:31:10;;;;;;;6.53;3.50;;;3.50;99.90;;;;;;5011689;28;20523;-73
2022/02/12 09:33:38;;;;;;;5.97;3.13;;;3.60;99.90;;;;;;5011754;28;20479;-73
2022/02/12 09:36:07;;;;;;;6.97;3.30;;;3.60;99.90;;;;;;5014089;28;20473;-72
2022/02/12 09:38:35;;;;;;;12.37;3.60;;;3.70;99.90;;;;;;5009093;28;20489;-72
2022/02/12 09:41:03;;;;;;;4.63;3.20;;;3.70;99.90;;;;;;5013229;28;20469;-72
2022/02/12 09:43:32;;;;;;;7.67;3.43;;;3.70;99.90;;;;;;5012361;28;20484;-72
2022/02/12 09:46:26;;;;;;;9.93;3.70;;;3.80;99.90;;;;;;5009263;28;20573;-71
2022/02/12 09:48:55;;;;;;;3.80;3.00;;;3.80;99.90;;;;;;5009559;28;20479;-73
2022/02/12 09:51:24;;;;;;;8.67;3.00;;;3.90;99.90;;;;;;5011799;28;20472;-72
2022/02/12 09:53:52;;;;;;;7.60;3.20;;;3.90;99.90;;;;;;5012963;28;20485;-73
2022/02/12 09:56:20;;;;;;;9.20;3.63;;;3.90;99.90;;;;;;5010129;28;20468;-72
2022/02/12 09:58:50;;;;;;;5.40;3.50;;;3.90;99.90;;;;;;5009662;28;20491;-72
2022/02/12 10:01:20;;;;;;;5.40;3.27;;;3.90;99.90;;;;;;5013853;28;20464;-72
2022/02/12 10:03:49;;;;;;;5.23;3.43;;;3.90;99.90;;;;;;5009694;28;20473;-73
2022/02/12 10:06:37;;;;;;;6.67;3.90;;;3.90;99.90;;;;;;5012197;28;20467;-73
2022/02/12 10:09:07;;;;;;;8.57;2.87;;;4.00;99.90;;;;;;5008386;28;20764;-72
2022/02/12 10:11:43;;;;;;;6.40;2.40;;;4.00;99.90;;;;;;5017663;28;20573;-72
2022/02/12 10:14:15;;;;;;;6.40;2.90;;;4.10;99.90;;;;;;5011366;28;20550;-71
2022/02/12 10:16:58;;;;;;;4.83;2.60;;;4.10;99.90;;;;;;5009685;28;20468;-71
2022/02/12 10:19:32;;;;;;;6.73;2.83;;;4.20;99.90;;;;;;5014697;28;20498;-72
2022/02/12 10:22:05;;;;;;;4.20;2.37;;;4.20;99.90;;;;;;5010384;28;20526;-72
2022/02/12 10:24:54;;;;;;;9.60;2.43;;;4.20;99.90;;;;;;5011063;28;20491;-72
2022/02/12 10:27:24;;;;;;;4.57;2.30;;;4.30;99.90;;;;;;5012039;28;20829;-72
2022/02/12 10:29:58;;;;;;;4.90;2.23;;;4.30;99.90;;;;;;5012091;28;20484;-72
2022/02/12 10:32:27;;;;;;;2.53;2.30;;;4.40;99.90;;;;;;5010414;28;20476;-74
2022/02/12 10:34:57;;;;;;;6.27;2.40;;;4.40;99.90;;;;;;5009909;28;21618;-73
2022/02/12 10:37:26;;;;;;;3.90;2.33;;;4.60;99.90;;;;;;5014037;28;20472;-72
2022/02/12 10:39:59;;;;;;;6.10;2.27;;;4.60;99.90;;;;;;5027682;28;20485;-73
2022/02/12 10:42:29;;;;;;;7.30;2.50;;;4.70;99.90;;;;;;5012526;28;20459;-73
2022/02/12 10:45:13;;;;;;;3.70;2.80;;;4.70;99.90;;;;;;5019817;28;20468;-72
2022/02/12 10:47:45;;;;;;;4.90;2.40;;;4.80;99.90;;;;;;5012109;28;20466;-73
2022/02/12 10:50:14;;;;;;;6.43;2.97;;;4.80;99.90;;;;;;5008171;28;20572;-72
2022/02/12 10:52:44;;;;;;;5.97;2.80;;;4.90;99.90;;;;;;5014713;28;20476;-73
2022/02/12 10:55:32;;;;;;;12.63;3.13;;;5.00;99.90;;;;;;5009911;28;20464;-73
2022/02/12 10:58:03;;;;;;;4.20;2.30;;;5.10;99.90;;;;;;5012450;28;20468;-72
2022/02/12 11:00:35;;;;;;;5.20;2.50;;;5.20;99.90;;;;;;5012581;28;20461;-73
2022/02/12 11:03:05;;;;;;;7.10;2.80;;;5.20;99.90;;;;;;5014561;28;20460;-71
2022/02/12 11:05:38;;;;;;;4.73;2.60;;;5.20;99.90;;;;;;5019578;28;20517;-71
2022/02/12 11:08:07;;;;;;;5.93;2.80;;;5.20;99.90;;;;;;5008582;28;20541;-73
2022/02/12 11:10:36;;;;;;;6.63;2.07;;;5.10;99.90;;;;;;5009586;28;20467;-72
2022/02/12 11:13:05;;;;;;;4.50;2.20;;;5.20;99.90;;;;;;5014303;28;20496;-72
2022/02/12 11:15:35;;;;;;;4.00;2.10;;;5.30;99.90;;;;;;5011573;28;20469;-72
2022/02/12 11:18:10;;;;;;;6.30;2.10;;;5.30;99.90;;;;;;5008734;28;23801;-72
2022/02/12 11:20:40;;;;;;;8.57;2.83;;;5.30;99.90;;;;;;5019197;28;20557;-72
2022/02/12 11:23:31;;;;;;;5.70;2.23;;;5.30;99.90;;;;;;5013638;28;20493;-73
2022/02/12 11:26:22;;;;;;;6.50;2.40;;;5.40;99.90;;;;;;5026562;28;20723;-73
2022/02/12 11:28:50;;;;;;;5.60;2.40;;;5.50;99.90;;;;;;4995686;28;20584;-73
2022/02/12 11:31:22;;;;;;;4.13;2.20;;;5.60;99.90;;;;;;5011448;28;20460;-73
2022/02/12 11:34:09;;;;;;;4.80;2.47;;;5.80;99.90;;;;;;5008821;28;20492;-73
2022/02/12 11:36:42;;;;;;;6.17;2.30;;;6.00;99.90;;;;;;5013471;28;20479;-73
2022/02/12 11:39:13;;;;;;;5.70;2.40;;;6.10;99.90;;;;;;5000936;28;20488;-74
2022/02/12 11:41:43;;;;;;;5.83;2.20;;;6.10;99.90;;;;;;4997924;28;20482;-75
2022/02/12 11:44:42;;;;;;;3.40;2.03;;;6.10;99.90;;;;;;4995476;28;20496;-76
2022/02/12 11:47:12;;;;;;;4.33;2.20;;;6.30;99.90;;;;;;5002020;28;20500;-75
2022/02/12 11:49:41;;;;;;;6.17;2.30;;;6.50;99.90;;;;;;4999559;28;20480;-76
2022/02/12 11:52:12;;;;;;;5.77;2.67;;;6.70;99.90;;;;;;5005516;28;20469;-75
2022/02/12 11:54:57;;;;;;;4.90;2.10;;;6.90;99.90;;;;;;5002119;28;20530;-74
2022/02/12 11:57:45;;;;;;;6.27;2.23;;;7.10;99.90;;;;;;5002859;28;20492;-73
2022/02/12 12:00:39;;;;;;;6.07;2.10;;;7.70;99.90;;;;;;5002208;28;20488;-74
2022/02/12 12:03:11;;;;;;;9.87;2.70;;;8.80;99.90;;;;;;5006914;28;20490;-73
2022/02/12 12:05:39;;;;;;;7.33;2.63;;;10.20;99.90;;;;;;5009816;28;20451;-72
2022/02/12 12:08:15;;;;;;;4.70;2.40;;;11.90;99.90;;;;;;4999279;28;21269;-74
2022/02/12 12:11:13;;;;;;;6.70;2.37;;;13.70;99.90;;;;;;5001003;28;21315;-73
2022/02/12 12:13:44;;;;;;;3.97;2.03;;;16.30;98.20;;;;;;5008272;28;20490;-75
2022/02/12 12:16:33;;;;;;;6.10;2.87;;;17.50;90.90;;;;;;5000972;28;20988;-74
2022/02/12 12:19:03;;;;;;;6.10;2.73;;;18.90;86.40;;;;;;5000808;28;21034;-75
2022/02/12 12:21:32;;;;;;;4.23;2.40;;;19.40;74.40;;;;;;5003192;28;20464;-75
2022/02/12 12:24:02;;;;;;;3.80;2.50;;;20.80;72.50;;;;;;5002526;28;20574;-75
2022/02/12 12:26:41;;;;;;;5.50;2.93;;;20.90;63.20;;;;;;5001337;28;22039;-74
2022/02/12 12:32:01;;;;;;;4.60;2.03;;;17.40;64.80;;;;;;5006647;28;20464;-74
2022/02/12 12:34:33;;;;;;;3.87;2.27;;;15.60;67.10;;;;;;5010810;28;20491;-74
2022/02/12 12:37:04;;;;;;;4.07;2.37;;;13.50;68.60;;;;;;5005329;28;20986;-75
2022/02/12 12:39:38;;;;;;;3.77;2.40;;;12.40;73.50;;;;;;5003661;28;20652;-73
2022/02/12 12:42:15;;;;;;;4.03;2.30;;;11.40;77.20;;;;;;5008401;28;20476;-74
2022/02/12 12:44:44;;;;;;;4.43;2.47;;;10.60;83.50;;;;;;5025992;28;20888;-74
2022/02/12 12:47:13;;;;;;;3.50;2.53;;;10.00;86.60;;;;;;5007285;28;20667;-74
2022/02/12 12:49:45;;;;;;;7.33;3.03;;;10.00;90.80;;;;;;4999625;28;20487;-71
2022/02/12 12:52:16;;;;;;;5.77;2.53;;;9.50;91.30;;;;;;5001975;28;20459;-72
2022/02/12 12:54:46;;;;;;;3.40;2.60;;;9.30;94.50;;;;;;5016637;28;20514;-72
2022/02/12 12:57:14;;;;;;;4.97;3.37;;;9.20;94.30;;;;;;4996854;28;23463;-71
2022/02/12 12:59:50;;;;;;;5.93;3.33;;;9.20;96.90;;;;;;5002345;28;20491;-71
2022/02/12 13:02:18;;;;;;;6.03;2.87;;;9.00;97.10;;;;;;5003098;28;20474;-70
2022/02/12 13:04:53;;;;;;;6.87;3.40;;;9.00;95.90;;;;;;5003115;28;20538;-71
2022/02/12 13:07:22;;;;;;;4.90;3.10;;;8.90;98.90;;;;;;5008610;28;20541;-70
2022/02/12 13:09:52;;;;;;;5.63;3.20;;;8.90;99.60;;;;;;5000735;28;20490;-74
2022/02/12 13:12:31;;;;;;;4.57;3.43;;;8.80;99.90;;;;;;4999742;28;20891;-72
2022/02/12 13:15:00;;;;;;;6.50;3.23;;;9.00;99.90;;;;;;4997555;28;20482;-72
2022/02/12 13:17:29;;;;;;;5.40;4.10;;;9.40;99.90;;;;;;5007345;28;20976;-73
2022/02/12 13:20:01;;;;;;;7.33;3.20;;;9.70;99.90;;;;;;5004089;28;20487;-72
2022/02/12 13:22:31;;;;;;;4.67;3.00;;;9.70;99.40;;;;;;5005931;28;20483;-74
2022/02/12 13:25:00;;;;;;;6.30;3.20;;;9.40;99.90;;;;;;5018564;28;20491;-74